createdAt,value
2017-05-13T00:00:19.744Z,74.1
2017-05-13T00:00:45.841Z,74.58
2017-05-13T00:01:11.933Z,74.48
2017-05-13T00:01:38.089Z,74.29
2017-05-13T00:02:04.218Z,74.1
2017-05-13T00:02:30.329Z,74.39
2017-05-13T00:02:56.462Z,73.62
2017-05-13T00:03:22.594Z,73.72
2017-05-13T00:03:48.687Z,73.72
2017-05-13T00:04:14.785Z,73.62
2017-05-13T00:04:40.876Z,73.52
2017-05-13T00:05:07.011Z,73.62
2017-05-13T00:05:33.107Z,73.62
2017-05-13T00:05:59.225Z,73.81
2017-05-13T00:06:25.327Z,73.46
2017-05-13T00:06:51.431Z,73.66
2017-05-13T00:07:17.544Z,73.66
2017-05-13T00:07:43.693Z,73.66
2017-05-13T00:08:09.826Z,73.81
2017-05-13T00:08:35.916Z,73.56
2017-05-13T00:09:02.037Z,73.72
2017-05-13T00:09:28.144Z,74.01
2017-05-13T00:09:54.319Z,74.19
2017-05-13T00:10:20.429Z,74.39
2017-05-13T00:10:46.537Z,74.39
2017-05-13T00:11:12.661Z,74.1
2017-05-13T00:11:38.775Z,74.58
2017-05-13T00:12:04.908Z,74.19
2017-05-13T00:12:31.009Z,74.29
2017-05-13T00:12:57.147Z,74.96
2017-05-13T00:13:23.278Z,74.96
2017-05-13T00:13:49.410Z,74.87
2017-05-13T00:14:15.519Z,74.87
2017-05-13T00:14:41.646Z,75.35
2017-05-13T00:15:07.815Z,75.54
2017-05-13T00:15:33.922Z,75.35
2017-05-13T00:16:00.051Z,75.45
2017-05-13T00:16:26.167Z,75.54
2017-05-13T00:16:52.271Z,75.54
2017-05-13T00:17:18.433Z,75.25
2017-05-13T00:17:44.547Z,75.82
2017-05-13T00:18:10.668Z,75.54
2017-05-13T00:18:36.801Z,75.82
2017-05-13T00:19:02.918Z,76.21
2017-05-13T00:19:29.089Z,76.27
2017-05-13T00:19:55.218Z,76.27
2017-05-13T00:20:21.311Z,76.27
2017-05-13T00:20:47.446Z,76.75
2017-05-13T00:21:13.533Z,76.65
2017-05-13T00:21:39.660Z,76.65
2017-05-13T00:22:05.764Z,76.75
2017-05-13T00:22:31.855Z,76.37
2017-05-13T00:22:57.978Z,76.4
2017-05-13T00:23:24.112Z,76.27
2017-05-13T00:23:50.285Z,76.37
2017-05-13T00:24:16.400Z,76.75
2017-05-13T00:24:42.534Z,76.27
2017-05-13T00:25:08.632Z,76.56
2017-05-13T00:25:34.772Z,76.46
2017-05-13T00:26:00.877Z,76.56
2017-05-13T00:26:26.996Z,76.27
2017-05-13T00:26:53.102Z,76.46
2017-05-13T00:27:19.195Z,76.59
2017-05-13T00:27:45.339Z,76.27
2017-05-13T00:28:11.445Z,76.17
2017-05-13T00:28:37.568Z,76.37
2017-05-13T00:29:03.683Z,76.27
2017-05-13T00:29:29.817Z,76.84
2017-05-13T00:29:55.917Z,76.56
2017-05-13T00:30:22.009Z,76.84
2017-05-13T00:30:48.111Z,77.04
2017-05-13T00:31:14.218Z,76.94
2017-05-13T00:31:40.312Z,76.75
2017-05-13T00:32:06.407Z,76.27
2017-05-13T00:32:32.497Z,76.56
2017-05-13T00:32:58.629Z,76.37
2017-05-13T00:33:24.758Z,77.13
2017-05-13T00:33:50.921Z,76.56
2017-05-13T00:34:17.046Z,76.84
2017-05-13T00:34:43.205Z,76.65
2017-05-13T00:35:09.315Z,76.56
2017-05-13T00:35:35.414Z,76.65
2017-05-13T00:36:01.518Z,76.84
2017-05-13T00:36:27.607Z,77.51
2017-05-13T00:36:53.728Z,77.23
2017-05-13T00:37:19.849Z,77.33
2017-05-13T00:37:45.980Z,77.61
2017-05-13T00:38:12.140Z,77.23
2017-05-13T00:38:38.227Z,77.33
2017-05-13T00:39:04.382Z,77.09
2017-05-13T00:39:30.488Z,77.71
2017-05-13T00:39:56.604Z,77.95
2017-05-13T00:40:22.701Z,77.8
2017-05-13T00:40:48.830Z,78.25
2017-05-13T00:41:14.952Z,77.95
2017-05-13T00:41:41.044Z,78.15
2017-05-13T00:42:07.155Z,78.25
2017-05-13T00:42:33.333Z,77.95
2017-05-13T00:42:59.435Z,78.25
2017-05-13T00:43:25.526Z,78.47
2017-05-13T00:43:51.648Z,78.15
2017-05-13T00:44:17.781Z,78.28
2017-05-13T00:44:43.874Z,78.09
2017-05-13T00:45:10.012Z,78.09
2017-05-13T00:45:36.121Z,78.34
2017-05-13T00:46:02.219Z,78.15
2017-05-13T00:46:28.358Z,78
2017-05-13T00:46:54.489Z,78
2017-05-13T00:47:20.589Z,78.19
2017-05-13T00:47:46.680Z,78.09
2017-05-13T00:48:12.861Z,77.95
2017-05-13T00:48:38.976Z,78.15
2017-05-13T00:49:05.138Z,78.09
2017-05-13T00:49:31.286Z,77.9
2017-05-13T00:49:57.401Z,77.71
2017-05-13T00:50:23.533Z,77.42
2017-05-13T00:50:49.659Z,77.8
2017-05-13T00:51:15.822Z,77.71
2017-05-13T00:51:41.953Z,77.71
2017-05-13T00:52:08.087Z,77.71
2017-05-13T00:52:34.174Z,78
2017-05-13T00:53:00.275Z,77.71
2017-05-13T00:53:26.437Z,77.71
2017-05-13T00:53:52.527Z,77.51
2017-05-13T00:54:18.698Z,77.23
2017-05-13T00:54:44.805Z,77.33
2017-05-13T00:55:10.951Z,77.33
2017-05-13T00:55:37.042Z,77.23
2017-05-13T00:56:03.148Z,77.33
2017-05-13T00:56:29.270Z,77.23
2017-05-13T00:56:55.386Z,77.42
2017-05-13T00:57:21.521Z,77.23
2017-05-13T00:57:47.686Z,77.13
2017-05-13T00:58:13.775Z,77.13
2017-05-13T00:58:39.876Z,77.23
2017-05-13T00:59:05.979Z,77.42
2017-05-13T00:59:32.097Z,77.8
2017-05-13T00:59:58.221Z,77.71
2017-05-13T01:00:24.310Z,77.61
2017-05-13T01:00:50.417Z,77.71
2017-05-13T01:01:16.517Z,78.09
2017-05-13T01:01:42.608Z,77.86
2017-05-13T01:02:08.735Z,78
2017-05-13T01:02:34.840Z,78.57
2017-05-13T01:03:00.955Z,78.63
2017-05-13T01:03:27.078Z,78.44
2017-05-13T01:03:53.212Z,78.63
2017-05-13T01:04:19.331Z,78.92
2017-05-13T01:04:45.475Z,78.72
2017-05-13T01:05:11.625Z,79.11
2017-05-13T01:05:37.754Z,78.92
2017-05-13T01:06:03.942Z,79.78
2017-05-13T01:06:30.030Z,79.78
2017-05-13T01:06:56.129Z,80.45
2017-05-13T01:07:22.237Z,80.55
2017-05-13T01:07:48.378Z,80.16
2017-05-13T01:08:14.501Z,80.64
2017-05-13T01:08:40.610Z,80.83
2017-05-13T01:09:06.698Z,80.35
2017-05-13T01:09:32.839Z,80.45
2017-05-13T01:09:58.979Z,80.35
2017-05-13T01:10:25.102Z,80.35
2017-05-13T01:10:51.205Z,80.35
2017-05-13T01:11:17.348Z,80.55
2017-05-13T01:11:43.444Z,80.35
2017-05-13T01:12:09.551Z,79.78
2017-05-13T01:12:35.686Z,80.35
2017-05-13T01:13:01.782Z,80.35
2017-05-13T01:13:27.915Z,79.88
2017-05-13T01:13:54.040Z,79.78
2017-05-13T01:14:20.158Z,79.78
2017-05-13T01:14:46.284Z,79.97
2017-05-13T01:15:12.440Z,79.88
2017-05-13T01:15:38.531Z,79.39
2017-05-13T01:16:04.659Z,79.59
2017-05-13T01:16:30.747Z,79.59
2017-05-13T01:16:56.856Z,79.78
2017-05-13T01:17:22.981Z,80.35
2017-05-13T01:17:49.096Z,80.55
2017-05-13T01:18:15.254Z,80.55
2017-05-13T01:18:41.384Z,80.16
2017-05-13T01:19:07.497Z,80.07
2017-05-13T01:19:33.654Z,80.55
2017-05-13T01:19:59.762Z,80.45
2017-05-13T01:20:25.876Z,81.18
2017-05-13T01:20:51.972Z,81.18
2017-05-13T01:21:18.079Z,81.27
2017-05-13T01:21:44.168Z,81.18
2017-05-13T01:22:10.297Z,80.99
2017-05-13T01:22:36.412Z,81.08
2017-05-13T01:23:02.567Z,81.51
2017-05-13T01:23:28.675Z,81.18
2017-05-13T01:23:54.816Z,80.83
2017-05-13T01:24:20.938Z,81.31
2017-05-13T01:24:47.101Z,81.12
2017-05-13T01:25:13.216Z,80.74
2017-05-13T01:25:39.337Z,80.83
2017-05-13T01:26:05.442Z,81.22
2017-05-13T01:26:31.563Z,81.12
2017-05-13T01:26:57.652Z,80.64
2017-05-13T01:27:23.783Z,80.64
2017-05-13T01:27:49.883Z,81.12
2017-05-13T01:28:16.015Z,80.64
2017-05-13T01:28:42.134Z,80.83
2017-05-13T01:29:08.312Z,80.74
2017-05-13T01:29:34.409Z,81.12
2017-05-13T01:30:00.528Z,80.64
2017-05-13T01:30:26.642Z,81.02
2017-05-13T01:30:52.779Z,80.45
2017-05-13T01:31:18.871Z,80.26
2017-05-13T01:31:44.987Z,80.26
2017-05-13T01:32:11.094Z,80.35
2017-05-13T01:32:37.250Z,80.45
2017-05-13T01:33:03.351Z,80.35
2017-05-13T01:33:29.445Z,80.07
2017-05-13T01:33:55.561Z,79.78
2017-05-13T01:34:21.668Z,80.07
2017-05-13T01:34:47.791Z,79.78
2017-05-13T01:35:13.907Z,79.88
2017-05-13T01:35:40.043Z,79.68
2017-05-13T01:36:06.172Z,79.97
2017-05-13T01:36:32.285Z,79.97
2017-05-13T01:36:58.387Z,79.97
2017-05-13T01:37:24.520Z,80.07
2017-05-13T01:37:50.630Z,80.16
2017-05-13T01:38:16.731Z,80.35
2017-05-13T01:38:42.839Z,80.35
2017-05-13T01:39:08.928Z,80.26
2017-05-13T01:39:35.021Z,80.26
2017-05-13T01:40:01.156Z,80.45
2017-05-13T01:40:27.249Z,80.45
2017-05-13T01:40:53.364Z,80.45
2017-05-13T01:41:19.472Z,80.35
2017-05-13T01:41:45.568Z,80.55
2017-05-13T01:42:11.657Z,80.26
2017-05-13T01:42:37.764Z,80.16
2017-05-13T01:43:03.922Z,80.16
2017-05-13T01:43:30.059Z,79.97
2017-05-13T01:43:56.185Z,80.35
2017-05-13T01:44:22.301Z,80.55
2017-05-13T01:44:48.435Z,80.45
2017-05-13T01:45:14.532Z,80.35
2017-05-13T01:45:40.669Z,80.26
2017-05-13T01:46:06.831Z,79.78
2017-05-13T01:46:32.930Z,80.35
2017-05-13T01:46:59.081Z,80.55
2017-05-13T01:47:25.147Z,80.35
2017-05-13T01:47:51.281Z,79.97
2017-05-13T01:48:17.369Z,80.35
2017-05-13T01:48:43.491Z,80.35
2017-05-13T01:49:09.653Z,80.45
2017-05-13T01:49:35.768Z,80.45
2017-05-13T01:50:01.899Z,80.35
2017-05-13T01:50:27.991Z,80.26
2017-05-13T01:50:54.095Z,80.35
2017-05-13T01:51:20.230Z,80.26
2017-05-13T01:51:46.368Z,80.74
2017-05-13T01:52:12.467Z,80.83
2017-05-13T01:52:38.574Z,80.16
2017-05-13T01:53:04.718Z,80.74
2017-05-13T01:53:30.814Z,80.74
2017-05-13T01:53:56.975Z,80.55
2017-05-13T01:54:23.094Z,80.64
2017-05-13T01:54:49.231Z,81.18
2017-05-13T01:55:15.332Z,81.37
2017-05-13T01:55:41.458Z,81.27
2017-05-13T01:56:07.590Z,81.18
2017-05-13T01:56:33.681Z,81.08
2017-05-13T01:56:59.803Z,81.37
2017-05-13T01:57:25.909Z,81.18
2017-05-13T01:57:52.028Z,81.22
2017-05-13T01:58:18.121Z,81.27
2017-05-13T01:58:44.228Z,81.56
2017-05-13T01:59:10.381Z,81.18
2017-05-13T01:59:36.545Z,81.27
2017-05-13T02:00:02.681Z,81.37
2017-05-13T02:00:28.865Z,81.18
2017-05-13T02:00:54.987Z,81.18
2017-05-13T02:01:21.105Z,81.75
2017-05-13T02:01:47.223Z,81.66
2017-05-13T02:02:13.358Z,81.66
2017-05-13T02:02:39.481Z,81.75
2017-05-13T02:03:05.619Z,81.95
2017-05-13T02:03:31.781Z,82.04
2017-05-13T02:03:57.880Z,82.62
2017-05-13T02:04:23.995Z,81.85
2017-05-13T02:04:50.124Z,82.42
2017-05-13T02:05:16.259Z,82.71
2017-05-13T02:05:42.348Z,82.71
2017-05-13T02:06:08.473Z,82.52
2017-05-13T02:06:34.620Z,82.86
2017-05-13T02:07:00.727Z,82.32
2017-05-13T02:07:26.825Z,82.71
2017-05-13T02:07:52.938Z,82.42
2017-05-13T02:08:19.042Z,83.15
2017-05-13T02:08:45.148Z,82.48
2017-05-13T02:09:11.234Z,82.38
2017-05-13T02:09:37.362Z,83.15
2017-05-13T02:10:03.523Z,83.25
2017-05-13T02:10:29.635Z,82.32
2017-05-13T02:10:55.729Z,82.32
2017-05-13T02:11:21.835Z,82.32
2017-05-13T02:11:48.007Z,82.62
2017-05-13T02:12:14.111Z,82.67
2017-05-13T02:12:40.198Z,82.9
2017-05-13T02:13:06.347Z,82.81
2017-05-13T02:13:32.468Z,82.57
2017-05-13T02:13:58.611Z,82.67
2017-05-13T02:14:24.708Z,82.52
2017-05-13T02:14:50.866Z,82.42
2017-05-13T02:15:16.989Z,82.81
2017-05-13T02:15:43.083Z,82.71
2017-05-13T02:16:09.219Z,82.81
2017-05-13T02:16:35.394Z,82.52
2017-05-13T02:17:01.491Z,82.32
2017-05-13T02:17:27.597Z,82.32
2017-05-13T02:17:53.742Z,82.29
2017-05-13T02:18:19.902Z,82.62
2017-05-13T02:18:46.023Z,82.71
2017-05-13T02:19:12.115Z,82.71
2017-05-13T02:19:38.306Z,82.52
2017-05-13T02:20:04.406Z,82.32
2017-05-13T02:20:30.566Z,82.9
2017-05-13T02:20:56.674Z,82.52
2017-05-13T02:21:22.802Z,82.62
2017-05-13T02:21:48.893Z,82.71
2017-05-13T02:22:14.994Z,82.81
2017-05-13T02:22:41.138Z,82.62
2017-05-13T02:23:07.289Z,82.48
2017-05-13T02:23:33.415Z,82.52
2017-05-13T02:23:59.550Z,82.62
2017-05-13T02:24:25.715Z,82.9
2017-05-13T02:24:51.813Z,82.81
2017-05-13T02:25:17.946Z,82.62
2017-05-13T02:25:44.039Z,82.81
2017-05-13T02:26:10.131Z,82.62
2017-05-13T02:26:36.282Z,82.52
2017-05-13T02:27:02.459Z,82.48
2017-05-13T02:27:28.550Z,82.52
2017-05-13T02:27:54.712Z,82.48
2017-05-13T02:28:20.850Z,82.19
2017-05-13T02:28:46.980Z,82.38
2017-05-13T02:29:13.073Z,82.48
2017-05-13T02:29:39.164Z,82.96
2017-05-13T02:30:05.301Z,82.32
2017-05-13T02:30:31.432Z,82.52
2017-05-13T02:30:57.545Z,82.29
2017-05-13T02:31:23.669Z,82.48
2017-05-13T02:31:49.764Z,82.76
2017-05-13T02:32:15.877Z,83.15
2017-05-13T02:32:42.032Z,83.05
2017-05-13T02:33:08.195Z,82.96
2017-05-13T02:33:34.286Z,83.05
2017-05-13T02:34:00.429Z,82.86
2017-05-13T02:34:26.552Z,83.25
2017-05-13T02:34:52.664Z,82.32
2017-05-13T02:35:18.765Z,82.62
2017-05-13T02:35:44.857Z,82.62
2017-05-13T02:36:10.962Z,82.9
2017-05-13T02:36:37.128Z,82.62
2017-05-13T02:37:03.240Z,82.04
2017-05-13T02:37:29.342Z,82.32
2017-05-13T02:37:55.447Z,82.52
2017-05-13T02:38:21.544Z,82.42
2017-05-13T02:38:47.691Z,82.04
2017-05-13T02:39:13.797Z,82.76
2017-05-13T02:39:39.942Z,82.76
2017-05-13T02:40:06.079Z,82.76
2017-05-13T02:40:32.165Z,82.81
2017-05-13T02:40:58.265Z,82.67
2017-05-13T02:41:24.428Z,82.38
2017-05-13T02:41:50.515Z,82.76
2017-05-13T02:42:16.611Z,82.62
2017-05-13T02:42:42.744Z,82.81
2017-05-13T02:43:08.886Z,82.48
2017-05-13T02:43:34.978Z,82.67
2017-05-13T02:44:01.141Z,82.57
2017-05-13T02:44:27.268Z,82.48
2017-05-13T02:44:53.381Z,82.48
2017-05-13T02:45:19.515Z,83.15
2017-05-13T02:45:45.621Z,82.48
2017-05-13T02:46:11.757Z,82.38
2017-05-13T02:46:37.901Z,82.48
2017-05-13T02:47:04.014Z,82.38
2017-05-13T02:47:30.147Z,82.48
2017-05-13T02:47:56.246Z,82.81
2017-05-13T02:48:22.335Z,82.29
2017-05-13T02:48:48.463Z,82.42
2017-05-13T02:49:14.587Z,82.52
2017-05-13T02:49:40.680Z,82.57
2017-05-13T02:50:06.835Z,82.42
2017-05-13T02:50:32.938Z,82.14
2017-05-13T02:50:59.058Z,82.09
2017-05-13T02:51:25.153Z,82.48
2017-05-13T02:51:51.246Z,82.29
2017-05-13T02:52:17.380Z,82.57
2017-05-13T02:52:43.481Z,82.19
2017-05-13T02:53:09.587Z,82.67
2017-05-13T02:53:35.731Z,82.29
2017-05-13T02:54:01.862Z,82.67
2017-05-13T02:54:27.950Z,82.86
2017-05-13T02:54:54.051Z,82.29
2017-05-13T02:55:20.158Z,82.67
2017-05-13T02:55:46.246Z,82.29
2017-05-13T02:56:12.342Z,82.38
2017-05-13T02:56:38.441Z,82.48
2017-05-13T02:57:04.544Z,83.15
2017-05-13T02:57:33.768Z,82.57
2017-05-13T02:57:59.885Z,82.57
2017-05-13T02:58:26.009Z,82.67
2017-05-13T02:58:52.153Z,82.67
2017-05-13T02:59:18.293Z,82.38
2017-05-13T02:59:44.438Z,82.48
2017-05-13T03:00:10.613Z,82.48
2017-05-13T03:00:36.755Z,82.57
2017-05-13T03:01:02.868Z,83.05
2017-05-13T03:01:28.976Z,83.25
2017-05-13T03:01:55.098Z,82.67
2017-05-13T03:02:21.203Z,82.57
2017-05-13T03:02:47.323Z,83.05
2017-05-13T03:03:13.473Z,83.15
2017-05-13T03:03:39.635Z,83.25
2017-05-13T03:04:05.757Z,83.15
2017-05-13T03:04:31.855Z,83.05
2017-05-13T03:04:57.987Z,83.15
2017-05-13T03:05:24.105Z,83.05
2017-05-13T03:05:50.203Z,83.44
2017-05-13T03:06:16.309Z,83.53
2017-05-13T03:06:42.425Z,83.44
2017-05-13T03:07:08.536Z,83.25
2017-05-13T03:07:34.676Z,83.34
2017-05-13T03:08:00.777Z,83.05
2017-05-13T03:08:26.865Z,83.34
2017-05-13T03:08:53.001Z,82.86
2017-05-13T03:09:19.174Z,82.86
2017-05-13T03:09:45.342Z,83.15
2017-05-13T03:10:11.455Z,83.34
2017-05-13T03:10:37.562Z,83.34
2017-05-13T03:11:03.698Z,83.25
2017-05-13T03:11:29.816Z,83.68
2017-05-13T03:11:55.926Z,83.68
2017-05-13T03:12:22.036Z,83.53
2017-05-13T03:12:48.140Z,83.53
2017-05-13T03:13:14.285Z,83.92
2017-05-13T03:13:40.375Z,83.53
2017-05-13T03:14:06.478Z,83.44
2017-05-13T03:14:32.603Z,83.34
2017-05-13T03:14:58.704Z,83.25
2017-05-13T03:15:24.879Z,83.15
2017-05-13T03:15:51.000Z,83.25
2017-05-13T03:16:17.108Z,82.76
2017-05-13T03:16:43.240Z,83.44
2017-05-13T03:17:09.349Z,83.05
2017-05-13T03:17:35.461Z,83.05
2017-05-13T03:18:01.565Z,83.34
2017-05-13T03:18:27.674Z,83.15
2017-05-13T03:18:53.875Z,83.15
2017-05-13T03:19:20.012Z,83.05
2017-05-13T03:19:46.201Z,82.96
2017-05-13T03:20:12.313Z,83.25
2017-05-13T03:20:38.451Z,83.44
2017-05-13T03:21:04.577Z,83.25
2017-05-13T03:21:30.679Z,83.05
2017-05-13T03:21:56.785Z,83.05
2017-05-13T03:22:22.884Z,83.34
2017-05-13T03:22:49.033Z,83.53
2017-05-13T03:23:15.271Z,83.44
2017-05-13T03:23:41.413Z,83.53
2017-05-13T03:24:07.513Z,83.25
2017-05-13T03:24:33.721Z,83.25
2017-05-13T03:24:59.832Z,83.25
2017-05-13T03:25:25.956Z,82.76
2017-05-13T03:25:52.049Z,82.96
2017-05-13T03:26:18.144Z,82.76
2017-05-13T03:26:44.267Z,83.44
2017-05-13T03:27:10.437Z,83.53
2017-05-13T03:27:36.558Z,83.15
2017-05-13T03:28:02.741Z,83.25
2017-05-13T03:28:28.915Z,83.44
2017-05-13T03:28:55.063Z,83.15
2017-05-13T03:29:21.236Z,83.15
2017-05-13T03:29:47.395Z,83.15
2017-05-13T03:30:13.567Z,83.53
2017-05-13T03:30:39.658Z,83.25
2017-05-13T03:31:05.787Z,83.15
2017-05-13T03:31:31.892Z,83.63
2017-05-13T03:31:58.043Z,83.05
2017-05-13T03:32:24.183Z,83.44
2017-05-13T03:32:50.295Z,83.44
2017-05-13T03:33:16.389Z,83.3
2017-05-13T03:33:42.482Z,82.96
2017-05-13T03:34:08.638Z,83.15
2017-05-13T03:34:34.762Z,83.25
2017-05-13T03:35:00.925Z,83.53
2017-05-13T03:35:27.053Z,83.05
2017-05-13T03:35:53.145Z,83.34
2017-05-13T03:36:19.253Z,83.25
2017-05-13T03:36:45.345Z,83.34
2017-05-13T03:37:11.460Z,82.76
2017-05-13T03:37:37.566Z,83.25
2017-05-13T03:38:03.667Z,83.34
2017-05-13T03:38:29.784Z,83.53
2017-05-13T03:38:55.888Z,83.25
2017-05-13T03:39:22.020Z,82.76
2017-05-13T03:39:48.134Z,83.44
2017-05-13T03:40:14.255Z,83.25
2017-05-13T03:40:40.362Z,83.44
2017-05-13T03:41:06.453Z,83.05
2017-05-13T03:41:32.554Z,83.25
2017-05-13T03:41:58.691Z,83.05
2017-05-13T03:42:24.845Z,83.44
2017-05-13T03:42:50.952Z,82.76
2017-05-13T03:43:17.116Z,82.96
2017-05-13T03:43:43.319Z,83.15
2017-05-13T03:44:09.452Z,83.05
2017-05-13T03:44:35.545Z,83.15
2017-05-13T03:45:01.691Z,83.34
2017-05-13T03:45:27.824Z,83.15
2017-05-13T03:45:53.941Z,83.15
2017-05-13T03:46:20.033Z,83.05
2017-05-13T03:46:46.137Z,83.25
2017-05-13T03:47:12.239Z,83.05
2017-05-13T03:47:38.346Z,83.25
2017-05-13T03:48:04.457Z,83.15
2017-05-13T03:48:30.552Z,83.05
2017-05-13T03:48:56.712Z,83.25
2017-05-13T03:49:22.829Z,82.96
2017-05-13T03:49:48.917Z,82.48
2017-05-13T03:50:15.053Z,83.05
2017-05-13T03:50:41.151Z,83.25
2017-05-13T03:51:07.242Z,82.57
2017-05-13T03:51:33.344Z,82.19
2017-05-13T03:51:59.470Z,82.48
2017-05-13T03:52:25.612Z,82.67
2017-05-13T03:52:51.817Z,82.76
2017-05-13T03:53:17.924Z,82.76
2017-05-13T03:53:44.010Z,82.76
2017-05-13T03:54:10.107Z,82.48
2017-05-13T03:54:36.214Z,82.48
2017-05-13T03:55:02.303Z,82.57
2017-05-13T03:55:28.402Z,82.48
2017-05-13T03:55:54.564Z,82.67
2017-05-13T03:56:20.784Z,82.67
2017-05-13T03:56:46.875Z,82.76
2017-05-13T03:57:13.005Z,82.76
2017-05-13T03:57:39.102Z,82.57
2017-05-13T03:58:05.269Z,82.09
2017-05-13T03:58:31.348Z,82.29
2017-05-13T03:58:57.469Z,82.38
2017-05-13T03:59:23.631Z,82.09
2017-05-13T03:59:49.803Z,82.29
2017-05-13T04:00:15.942Z,82.19
2017-05-13T04:00:42.050Z,82.29
2017-05-13T04:01:08.171Z,82.19
2017-05-13T04:01:34.286Z,82.38
2017-05-13T04:02:00.413Z,82.19
2017-05-13T04:02:26.512Z,81.95
2017-05-13T04:02:52.628Z,82.09
2017-05-13T04:03:18.753Z,81.66
2017-05-13T04:03:44.896Z,81.85
2017-05-13T04:04:11.004Z,81.75
2017-05-13T04:04:37.151Z,81.08
2017-05-13T04:05:03.266Z,80.99
2017-05-13T04:05:29.401Z,81.18
2017-05-13T04:05:55.529Z,81.37
2017-05-13T04:06:21.667Z,81.18
2017-05-13T04:06:47.770Z,80.89
2017-05-13T04:07:13.903Z,80.89
2017-05-13T04:07:40.015Z,81.04
2017-05-13T04:08:06.138Z,81.27
2017-05-13T04:08:32.244Z,81.46
2017-05-13T04:08:58.408Z,81.18
2017-05-13T04:09:24.619Z,80.99
2017-05-13T04:09:50.757Z,81.08
2017-05-13T04:10:16.861Z,80.99
2017-05-13T04:10:43.004Z,81.18
2017-05-13T04:11:09.105Z,80.89
2017-05-13T04:11:35.247Z,81.66
2017-05-13T04:12:01.355Z,81.46
2017-05-13T04:12:27.498Z,81.43
2017-05-13T04:12:53.641Z,81.27
2017-05-13T04:13:19.776Z,81.27
2017-05-13T04:13:45.872Z,81.27
2017-05-13T04:14:11.983Z,81.18
2017-05-13T04:14:38.115Z,81.13
2017-05-13T04:15:04.244Z,81.08
2017-05-13T04:15:30.350Z,81.37
2017-05-13T04:15:56.439Z,81.13
2017-05-13T04:16:22.560Z,80.85
2017-05-13T04:16:48.666Z,81.13
2017-05-13T04:17:14.760Z,81.08
2017-05-13T04:17:40.876Z,81.37
2017-05-13T04:18:07.009Z,81.27
2017-05-13T04:18:33.134Z,81.04
2017-05-13T04:18:59.275Z,81.81
2017-05-13T04:19:25.409Z,81.75
2017-05-13T04:19:51.564Z,81.37
2017-05-13T04:20:17.688Z,81.13
2017-05-13T04:20:43.782Z,81.27
2017-05-13T04:21:09.898Z,81.37
2017-05-13T04:21:36.037Z,81.37
2017-05-13T04:22:02.185Z,81.18
2017-05-13T04:22:28.276Z,81.46
2017-05-13T04:22:54.382Z,81.37
2017-05-13T04:23:20.564Z,81.08
2017-05-13T04:23:46.679Z,81.27
2017-05-13T04:24:12.785Z,80.89
2017-05-13T04:24:38.917Z,80.79
2017-05-13T04:25:05.050Z,80.99
2017-05-13T04:25:31.149Z,81.08
2017-05-13T04:25:57.240Z,81.08
2017-05-13T04:26:23.345Z,80.6
2017-05-13T04:26:49.472Z,80.32
2017-05-13T04:27:15.588Z,80.41
2017-05-13T04:27:41.691Z,80.7
2017-05-13T04:28:07.883Z,81.08
2017-05-13T04:28:33.998Z,80.99
2017-05-13T04:29:00.130Z,81.08
2017-05-13T04:29:26.322Z,80.6
2017-05-13T04:29:52.465Z,80.79
2017-05-13T04:30:18.585Z,81.08
2017-05-13T04:30:44.718Z,80.7
2017-05-13T04:31:10.814Z,80.51
2017-05-13T04:31:36.920Z,80.89
2017-05-13T04:32:03.008Z,80.6
2017-05-13T04:32:29.134Z,80.12
2017-05-13T04:32:55.240Z,80.03
2017-05-13T04:33:21.352Z,80.22
2017-05-13T04:33:47.451Z,80.41
2017-05-13T04:34:13.556Z,80.12
2017-05-13T04:34:39.703Z,80.45
2017-05-13T04:35:05.818Z,79.68
2017-05-13T04:35:31.928Z,80.07
2017-05-13T04:35:58.053Z,80.12
2017-05-13T04:36:24.166Z,80.32
2017-05-13T04:36:50.274Z,80.41
2017-05-13T04:37:16.401Z,80.32
2017-05-13T04:37:42.486Z,80.12
2017-05-13T04:38:08.647Z,80.41
2017-05-13T04:38:34.778Z,80.41
2017-05-13T04:39:00.914Z,80.32
2017-05-13T04:39:27.015Z,80.32
2017-05-13T04:39:53.150Z,80.41
2017-05-13T04:40:19.262Z,80.03
2017-05-13T04:40:45.385Z,80.7
2017-05-13T04:41:11.488Z,80.51
2017-05-13T04:41:37.582Z,80.6
2017-05-13T04:42:03.696Z,80.89
2017-05-13T04:42:29.800Z,81.18
2017-05-13T04:42:55.925Z,80.79
2017-05-13T04:43:22.085Z,80.51
2017-05-13T04:43:48.176Z,80.7
2017-05-13T04:44:14.297Z,80.6
2017-05-13T04:44:40.429Z,80.6
2017-05-13T04:45:06.575Z,81.18
2017-05-13T04:45:32.695Z,81.37
2017-05-13T04:45:58.775Z,80.7
2017-05-13T04:46:24.872Z,81.08
2017-05-13T04:46:50.987Z,80.99
2017-05-13T04:47:17.122Z,80.7
2017-05-13T04:47:43.248Z,80.6
2017-05-13T04:48:09.349Z,80.99
2017-05-13T04:48:35.473Z,81.18
2017-05-13T04:49:01.588Z,81.18
2017-05-13T04:49:27.726Z,80.99
2017-05-13T04:49:53.876Z,80.83
2017-05-13T04:50:19.967Z,81.12
2017-05-13T04:50:46.074Z,80.55
2017-05-13T04:51:12.175Z,80.64
2017-05-13T04:51:38.264Z,80.55
2017-05-13T04:52:04.367Z,80.51
2017-05-13T04:52:30.473Z,80.6
2017-05-13T04:52:56.557Z,80.99
2017-05-13T04:53:22.681Z,80.6
2017-05-13T04:53:48.772Z,80.41
2017-05-13T04:54:14.880Z,80.51
2017-05-13T04:54:41.007Z,80.99
2017-05-13T04:55:07.124Z,80.99
2017-05-13T04:55:33.247Z,81.27
2017-05-13T04:55:59.354Z,81.18
2017-05-13T04:56:25.466Z,81.18
2017-05-13T04:56:51.659Z,81.27
2017-05-13T04:57:17.752Z,81.18
2017-05-13T04:57:43.868Z,81.56
2017-05-13T04:58:09.988Z,81.27
2017-05-13T04:58:36.095Z,81.08
2017-05-13T04:59:02.214Z,81.46
2017-05-13T04:59:28.353Z,81.56
2017-05-13T04:59:54.486Z,82.14
2017-05-13T05:00:20.612Z,81.75
2017-05-13T05:00:46.703Z,81.37
2017-05-13T05:01:12.809Z,80.99
2017-05-13T05:01:38.930Z,81.18
2017-05-13T05:02:05.046Z,81.18
2017-05-13T05:02:31.150Z,81.08
2017-05-13T05:02:57.284Z,81.27
2017-05-13T05:03:23.372Z,81.27
2017-05-13T05:03:49.521Z,80.99
2017-05-13T05:04:15.628Z,81.22
2017-05-13T05:04:41.716Z,81.41
2017-05-13T05:05:07.846Z,81.12
2017-05-13T05:05:33.961Z,80.64
2017-05-13T05:06:00.063Z,81.31
2017-05-13T05:06:26.197Z,80.55
2017-05-13T05:06:52.332Z,80.26
2017-05-13T05:07:18.431Z,80.22
2017-05-13T05:07:44.566Z,80.7
2017-05-13T05:08:10.683Z,81.12
2017-05-13T05:08:36.802Z,81.22
2017-05-13T05:09:02.933Z,80.83
2017-05-13T05:09:29.054Z,80.83
2017-05-13T05:09:55.144Z,80.74
2017-05-13T05:10:21.248Z,80.55
2017-05-13T05:10:47.346Z,80.26
2017-05-13T05:11:13.481Z,80.26
2017-05-13T05:11:39.595Z,80.74
2017-05-13T05:12:05.692Z,80.64
2017-05-13T05:12:31.797Z,80.55
2017-05-13T05:12:57.942Z,80.64
2017-05-13T05:13:24.058Z,80.45
2017-05-13T05:13:50.219Z,80.26
2017-05-13T05:14:16.345Z,80.55
2017-05-13T05:14:42.483Z,80.35
2017-05-13T05:15:08.590Z,80.26
2017-05-13T05:15:34.690Z,80.45
2017-05-13T05:16:00.790Z,80.07
2017-05-13T05:16:26.882Z,80.45
2017-05-13T05:16:52.997Z,80.45
2017-05-13T05:17:19.158Z,80.45
2017-05-13T05:17:45.307Z,80.16
2017-05-13T05:18:11.425Z,80.35
2017-05-13T05:18:37.531Z,80.41
2017-05-13T05:19:03.631Z,80.32
2017-05-13T05:19:29.720Z,80.74
2017-05-13T05:19:55.880Z,80.7
2017-05-13T05:20:22.036Z,80.55
2017-05-13T05:20:48.125Z,80.22
2017-05-13T05:21:14.227Z,80.16
2017-05-13T05:21:40.333Z,80.55
2017-05-13T05:22:06.423Z,80.74
2017-05-13T05:22:32.545Z,81.12
2017-05-13T05:22:58.678Z,80.99
2017-05-13T05:23:24.799Z,81.22
2017-05-13T05:23:50.890Z,80.74
2017-05-13T05:24:17.051Z,80.55
2017-05-13T05:24:43.158Z,80.74
2017-05-13T05:25:09.259Z,80.64
2017-05-13T05:25:35.366Z,80.74
2017-05-13T05:26:01.465Z,80.74
2017-05-13T05:26:27.606Z,80.74
2017-05-13T05:26:53.738Z,80.26
2017-05-13T05:27:19.878Z,80.26
2017-05-13T05:27:46.039Z,80.45
2017-05-13T05:28:12.190Z,80.16
2017-05-13T05:28:38.282Z,80.07
2017-05-13T05:29:04.416Z,79.68
2017-05-13T05:29:30.516Z,79.68
2017-05-13T05:29:56.632Z,79.78
2017-05-13T05:30:22.735Z,79.88
2017-05-13T05:30:48.841Z,79.97
2017-05-13T05:31:14.931Z,80.07
2017-05-13T05:31:41.056Z,79.88
2017-05-13T05:32:07.159Z,80.07
2017-05-13T05:32:33.252Z,80.26
2017-05-13T05:32:59.411Z,80.45
2017-05-13T05:33:25.525Z,80.35
2017-05-13T05:33:51.657Z,80.26
2017-05-13T05:34:17.790Z,80.26
2017-05-13T05:34:43.900Z,80.55
2017-05-13T05:35:10.024Z,80.26
2017-05-13T05:35:36.127Z,80.64
2017-05-13T05:36:02.220Z,80.74
2017-05-13T05:36:28.318Z,80.74
2017-05-13T05:36:54.449Z,80.64
2017-05-13T05:37:20.570Z,80.64